createdAt,value
2018-08-10T00:02:04.184Z,101470.39
2018-08-10T00:04:34.092Z,101475.12
2018-08-10T00:07:04.794Z,101469.00
2018-08-10T00:09:43.419Z,101472.96
2018-08-10T00:12:18.999Z,101475.20
2018-08-10T00:14:51.461Z,101468.64
2018-08-10T00:17:20.922Z,101453.52
2018-08-10T00:19:53.785Z,101464.98
2018-08-10T00:22:29.291Z,101470.56
2018-08-10T00:25:08.579Z,101474.30
2018-08-10T00:27:41.003Z,101470.56
2018-08-10T00:30:16.035Z,101483.02
2018-08-10T00:32:47.561Z,101473.58
2018-08-10T00:35:19.550Z,101466.98
2018-08-10T00:37:50.721Z,101476.55
2018-08-10T00:40:25.633Z,101469.13
2018-08-10T00:42:56.511Z,101469.08
2018-08-10T00:45:30.126Z,101473.17
2018-08-10T00:48:06.876Z,101467.76
2018-08-10T00:50:38.707Z,101473.61
2018-08-10T00:53:09.534Z,101458.46
2018-08-10T00:55:43.077Z,101469.88
2018-08-10T00:58:17.001Z,101471.72
2018-08-10T01:00:51.671Z,101461.83
2018-08-10T01:03:24.624Z,101449.33
2018-08-10T01:06:01.081Z,101464.39
2018-08-10T01:08:31.451Z,101445.06
2018-08-10T01:11:04.945Z,101464.34
2018-08-10T01:13:38.234Z,101453.77
2018-08-10T01:16:17.901Z,101451.91
2018-08-10T01:18:50.611Z,101398.14
2018-08-10T01:21:22.850Z,101456.84
2018-08-10T01:23:53.286Z,101459.48
2018-08-10T01:26:24.000Z,101469.34
2018-08-10T01:28:55.497Z,101465.33
2018-08-10T01:31:27.285Z,101458.41
2018-08-10T01:34:08.230Z,101468.32
2018-08-10T01:36:40.864Z,101469.29
2018-08-10T01:39:13.511Z,101462.62
2018-08-10T01:41:47.368Z,101473.43
2018-08-10T01:44:22.014Z,101409.91
2018-08-10T01:46:55.267Z,101466.88
2018-08-10T01:52:08.539Z,101451.40
2018-08-10T01:54:40.962Z,101466.66
2018-08-10T01:57:13.528Z,101466.30
2018-08-10T01:59:44.750Z,101464.31
2018-08-10T02:02:20.407Z,101465.20
2018-08-10T02:04:56.743Z,101467.78
2018-08-10T02:07:29.313Z,101468.81
2018-08-10T02:10:02.280Z,101477.51
2018-08-10T02:12:34.527Z,101476.05
2018-08-10T02:15:06.900Z,101489.20
2018-08-10T02:17:37.506Z,101466.11
2018-08-10T02:20:12.811Z,101465.92
2018-08-10T02:22:47.978Z,101480.63
2018-08-10T02:25:22.594Z,101479.44
2018-08-10T02:27:53.852Z,101465.50
2018-08-10T02:30:27.915Z,101483.40
2018-08-10T02:33:02.748Z,101482.30
2018-08-10T02:35:35.270Z,101477.99
2018-08-10T02:38:07.060Z,101498.20
2018-08-10T02:40:39.223Z,101491.77
2018-08-10T02:43:09.935Z,101488.84
2018-08-10T02:45:41.682Z,101509.00
2018-08-10T02:48:16.792Z,101508.70
2018-08-10T02:50:47.179Z,101501.98
2018-08-10T02:53:19.723Z,101511.34
2018-08-10T02:55:49.070Z,101506.55
2018-08-10T02:58:22.195Z,101512.53
2018-08-10T03:00:59.585Z,101521.06
2018-08-10T03:03:31.277Z,101511.27
2018-08-10T03:06:01.921Z,101497.63
2018-08-10T03:08:33.270Z,101527.05
2018-08-10T03:11:08.416Z,101510.80
2018-08-10T03:13:40.323Z,101524.64
2018-08-10T03:16:16.067Z,101529.08
2018-08-10T03:18:47.560Z,101530.05
2018-08-10T03:21:17.953Z,101524.96
2018-08-10T03:23:49.065Z,101522.55
2018-08-10T03:26:19.396Z,101515.63
2018-08-10T03:28:51.834Z,101529.08
2018-08-10T03:31:21.523Z,101520.58
2018-08-10T03:33:51.371Z,101521.29
2018-08-10T03:36:22.288Z,101523.31
2018-08-10T03:38:53.553Z,101527.05
2018-08-10T03:41:24.688Z,101536.64
2018-08-10T03:43:57.244Z,101513.62
2018-08-10T03:46:36.366Z,101524.61
2018-08-10T03:49:07.834Z,101539.41
2018-08-10T03:51:41.084Z,101543.80
2018-08-10T03:54:13.500Z,101534.63
2018-08-10T03:56:48.041Z,101490.77
2018-08-10T03:59:18.416Z,101548.81
2018-08-10T04:01:48.302Z,101539.09
2018-08-10T04:04:18.073Z,101555.61
2018-08-10T04:06:51.856Z,101539.40
2018-08-10T04:09:26.661Z,101542.80
2018-08-10T04:12:00.112Z,101544.91
2018-08-10T04:14:31.015Z,101550.95
2018-08-10T04:17:01.176Z,101553.39
2018-08-10T04:19:30.628Z,101556.03
2018-08-10T04:22:00.859Z,101566.42
2018-08-10T04:24:38.339Z,101548.02
2018-08-10T04:27:23.461Z,101558.56
2018-08-10T04:29:58.608Z,101553.81
2018-08-10T04:32:31.416Z,101560.08
2018-08-10T04:35:10.365Z,101565.47
2018-08-10T04:37:47.139Z,101563.40
2018-08-10T04:40:23.112Z,101561.86
2018-08-10T04:42:56.522Z,101576.27
2018-08-10T04:45:30.251Z,101571.41
2018-08-10T04:48:05.655Z,101565.52
2018-08-10T04:50:41.361Z,101564.80
2018-08-10T04:53:12.983Z,101575.30
2018-08-10T04:55:43.825Z,101570.69
2018-08-10T04:58:16.348Z,101578.39
2018-08-10T05:00:52.744Z,101585.22
2018-08-10T05:03:26.322Z,101577.72
2018-08-10T05:05:58.593Z,101576.31
2018-08-10T05:08:30.866Z,101574.70
2018-08-10T05:11:00.281Z,101584.34
2018-08-10T05:13:29.815Z,101584.11
2018-08-10T05:16:01.676Z,101588.97
2018-08-10T05:18:31.606Z,101600.48
2018-08-10T05:21:01.324Z,101591.41
2018-08-10T05:23:34.465Z,101600.95
2018-08-10T05:26:05.548Z,101602.45
2018-08-10T05:28:37.885Z,101598.36
2018-08-10T05:31:10.986Z,101598.58
2018-08-10T05:33:48.743Z,101599.41
2018-08-10T05:36:20.021Z,101592.63
2018-08-10T05:38:51.636Z,101601.11
2018-08-10T05:41:23.690Z,101592.83
2018-08-10T05:43:55.721Z,101605.66
2018-08-10T05:46:25.951Z,101616.15
2018-08-10T05:48:59.061Z,101613.16
2018-08-10T05:51:32.986Z,101603.03
2018-08-10T05:54:05.669Z,101613.17
2018-08-10T05:58:56.852Z,101616.32
2018-08-10T06:01:28.969Z,101616.36
2018-08-10T06:04:01.266Z,101605.89
2018-08-10T06:06:33.508Z,101603.34
2018-08-10T06:09:03.782Z,101591.88
2018-08-10T06:11:37.705Z,101604.78
2018-08-10T06:14:10.634Z,101607.62
2018-08-10T06:16:40.113Z,101604.92
2018-08-10T06:19:16.684Z,101583.45
2018-08-10T06:21:48.997Z,101599.41
2018-08-10T06:24:21.421Z,101601.39
2018-08-10T06:26:54.531Z,101608.72
2018-08-10T06:29:24.676Z,101588.09
2018-08-10T06:31:58.193Z,101603.31
2018-08-10T06:34:29.103Z,101599.92
2018-08-10T06:37:02.148Z,101614.73
2018-08-10T06:39:33.829Z,101614.73
2018-08-10T06:42:17.157Z,101611.38
2018-08-10T06:44:51.844Z,101618.80
2018-08-10T06:47:28.962Z,101611.98
2018-08-10T06:50:02.235Z,101637.23
2018-08-10T06:52:35.217Z,101616.23
2018-08-10T06:55:08.826Z,101614.02
2018-08-10T06:57:42.802Z,101615.65
2018-08-10T07:00:14.385Z,101631.12
2018-08-10T07:02:48.434Z,101621.62
2018-08-10T07:05:26.375Z,101625.86
2018-08-10T07:08:02.983Z,101624.83
2018-08-10T07:10:40.712Z,101629.39
2018-08-10T07:13:12.836Z,101587.84
2018-08-10T07:15:46.584Z,101603.73
2018-08-10T07:18:19.108Z,101623.75
2018-08-10T07:20:49.389Z,101590.50
2018-08-10T07:23:21.098Z,101620.33
2018-08-10T07:25:52.645Z,101630.92
2018-08-10T07:28:25.618Z,101631.50
2018-08-10T07:30:59.093Z,101625.89
2018-08-10T07:33:29.514Z,101606.25
2018-08-10T07:36:05.306Z,101634.80
2018-08-10T07:38:35.877Z,101606.62
2018-08-10T07:41:10.279Z,101639.95
2018-08-10T07:43:40.413Z,101643.08
2018-08-10T07:46:16.268Z,101624.59
2018-08-10T07:48:52.618Z,101632.98
2018-08-10T07:51:24.124Z,101630.31
2018-08-10T07:53:55.588Z,101644.89
2018-08-10T07:56:30.563Z,101644.75
2018-08-10T07:59:01.056Z,101648.19
2018-08-10T08:01:33.700Z,101612.22
2018-08-10T08:04:06.886Z,101637.53
2018-08-10T08:06:39.513Z,101637.13
2018-08-10T08:09:11.958Z,101638.59
2018-08-10T08:11:42.888Z,101637.48
2018-08-10T08:14:14.232Z,101638.11
2018-08-10T08:16:44.725Z,101647.99
2018-08-10T08:19:16.226Z,101648.19
2018-08-10T08:22:00.120Z,101635.95
2018-08-10T08:24:30.679Z,101640.73
2018-08-10T08:27:11.236Z,101603.19
2018-08-10T08:29:43.513Z,101650.08
2018-08-10T08:32:15.600Z,101651.75
2018-08-10T08:34:51.145Z,101646.55
2018-08-10T08:37:21.861Z,101654.00
2018-08-10T08:40:28.014Z,101653.70
2018-08-10T08:43:02.174Z,101659.92
2018-08-10T08:45:50.546Z,101657.16
2018-08-10T08:48:25.158Z,101666.00
2018-08-10T08:50:57.914Z,101663.99
2018-08-10T08:53:37.789Z,101648.56
2018-08-10T08:56:19.726Z,101658.34
2018-08-10T08:58:51.766Z,101657.19
2018-08-10T09:01:24.020Z,101663.78
2018-08-10T09:05:10.353Z,101657.67
2018-08-10T09:07:40.248Z,101668.22
2018-08-10T09:10:19.151Z,101665.41
2018-08-10T09:12:51.384Z,101662.28
2018-08-10T09:15:54.802Z,101663.97
2018-08-10T09:18:25.972Z,101661.81
2018-08-10T09:20:57.837Z,101660.81
2018-08-10T09:23:28.061Z,101676.14
2018-08-10T09:25:59.026Z,101664.81
2018-08-10T09:28:30.427Z,101653.88
2018-08-10T09:31:02.155Z,101659.68
2018-08-10T09:33:35.641Z,101664.08
2018-08-10T09:36:09.426Z,101653.95
2018-08-10T09:38:39.522Z,101650.98
2018-08-10T09:41:12.681Z,101645.49
2018-08-10T09:43:45.097Z,101644.70
2018-08-10T09:46:18.202Z,101645.14
2018-08-10T09:48:49.189Z,101647.03
2018-08-10T09:51:21.990Z,101642.03
2018-08-10T09:53:51.211Z,101649.38
2018-08-10T09:56:21.384Z,101651.78
2018-08-10T09:58:53.359Z,101649.77
2018-08-10T10:01:25.624Z,101642.02
2018-08-10T10:03:56.037Z,101640.05
2018-08-10T10:06:31.277Z,101635.34
2018-08-10T10:09:02.599Z,101627.72
2018-08-10T10:11:33.654Z,101640.70
2018-08-10T10:14:03.749Z,101641.64
2018-08-10T10:16:33.200Z,101646.60
2018-08-10T10:19:06.084Z,101642.48
2018-08-10T10:21:36.355Z,101634.27
2018-08-10T10:24:08.397Z,101642.52
2018-08-10T10:26:37.785Z,101646.16
2018-08-10T10:29:07.970Z,101648.94
2018-08-10T10:31:40.051Z,101635.91
2018-08-10T10:34:09.556Z,101635.64
2018-08-10T10:36:39.105Z,101633.09
2018-08-10T10:39:13.358Z,101623.09
2018-08-10T10:41:44.608Z,101623.59
2018-08-10T10:44:15.887Z,101598.88
2018-08-10T10:46:46.232Z,101633.46
2018-08-10T10:49:20.533Z,101630.97
2018-08-10T10:51:49.807Z,101624.58
2018-08-10T10:54:19.636Z,101613.15
2018-08-10T10:56:49.658Z,101623.81
2018-08-10T10:59:18.829Z,101599.52
2018-08-10T11:01:48.548Z,101614.34
2018-08-10T11:04:18.449Z,101617.55
2018-08-10T11:06:49.337Z,101621.41
2018-08-10T11:09:21.685Z,101622.05
2018-08-10T11:11:51.058Z,101622.77
2018-08-10T11:14:21.833Z,101624.27
2018-08-10T11:16:52.176Z,101618.02
2018-08-10T11:19:26.673Z,101621.38
2018-08-10T11:21:57.598Z,101625.98
2018-08-10T11:24:27.599Z,101629.22
2018-08-10T11:26:57.615Z,101622.50
2018-08-10T11:29:27.894Z,101549.30
2018-08-10T11:32:01.315Z,101624.47
2018-08-10T11:34:30.722Z,101632.55
2018-08-10T11:37:01.030Z,101625.09
2018-08-10T11:39:31.499Z,101613.37
2018-08-10T11:42:02.362Z,101630.88
2018-08-10T11:44:31.683Z,101626.63
2018-08-10T11:47:02.235Z,101630.55
2018-08-10T11:49:33.324Z,101623.66
2018-08-10T11:52:04.998Z,101628.39
2018-08-10T11:54:36.660Z,101629.98
2018-08-10T11:57:06.558Z,101629.16
2018-08-10T11:59:35.868Z,101630.17
2018-08-10T12:02:06.352Z,101611.02
2018-08-10T12:04:38.015Z,101618.67
2018-08-10T12:07:07.355Z,101616.05
2018-08-10T12:09:38.372Z,101607.27
2018-08-10T12:12:09.594Z,101614.78
2018-08-10T12:14:40.525Z,101615.47
2018-08-10T12:17:12.260Z,101604.84
2018-08-10T12:19:44.485Z,101612.73
2018-08-10T12:22:15.210Z,101607.59
2018-08-10T12:24:44.450Z,101607.58
2018-08-10T12:27:17.706Z,101603.58
2018-08-10T12:29:49.015Z,101603.28
2018-08-10T12:32:19.810Z,101603.98
2018-08-10T12:34:49.791Z,101607.03
2018-08-10T12:37:19.295Z,101612.10
2018-08-10T12:39:48.541Z,101607.05
2018-08-10T12:42:19.013Z,101612.50
2018-08-10T12:44:53.879Z,101580.69
2018-08-10T12:47:23.732Z,101610.98
2018-08-10T12:49:53.998Z,101601.50
2018-08-10T12:52:23.469Z,101611.06
2018-08-10T12:54:53.697Z,101609.08
2018-08-10T12:57:25.157Z,101605.02
2018-08-10T12:59:55.182Z,101606.64
2018-08-10T13:02:26.524Z,101603.28
2018-08-10T13:04:56.939Z,101611.45
2018-08-10T13:07:27.587Z,101608.46
2018-08-10T13:09:56.858Z,101614.82
2018-08-10T13:12:27.145Z,101610.48
2018-08-10T13:14:56.553Z,101602.02
2018-08-10T13:17:26.089Z,101599.80
2018-08-10T13:19:55.258Z,101607.83
2018-08-10T13:22:25.411Z,101612.12
2018-08-10T13:24:56.567Z,101608.52
2018-08-10T13:27:27.167Z,101601.00
2018-08-10T13:29:59.302Z,101604.39
2018-08-10T13:32:29.270Z,101606.64
2018-08-10T13:34:59.086Z,101600.22
2018-08-10T13:37:28.403Z,101604.30
2018-08-10T13:39:57.677Z,101603.29
2018-08-10T13:42:27.097Z,101518.98
2018-08-10T13:44:57.993Z,101601.25
2018-08-10T13:47:29.223Z,101604.70
2018-08-10T13:50:01.789Z,101596.95
2018-08-10T13:52:31.561Z,101607.31
2018-08-10T13:55:03.938Z,101608.10
2018-08-10T13:57:36.444Z,101609.96
2018-08-10T14:00:07.051Z,101605.83
2018-08-10T14:02:37.621Z,101607.20
2018-08-10T14:05:09.519Z,101577.09
2018-08-10T14:07:41.995Z,101602.98
2018-08-10T14:10:13.411Z,101603.19
2018-08-10T14:12:43.873Z,101602.73
2018-08-10T14:15:15.170Z,101605.42
2018-08-10T14:17:48.674Z,101603.55
2018-08-10T14:20:20.901Z,101607.48
2018-08-10T14:22:50.868Z,101601.45
2018-08-10T14:25:20.599Z,101598.19
2018-08-10T14:27:49.951Z,101592.14
2018-08-10T14:30:21.937Z,101603.28
2018-08-10T14:32:51.486Z,101611.95
2018-08-10T14:35:23.215Z,101604.90
2018-08-10T14:37:55.451Z,101598.08
2018-08-10T14:40:25.975Z,101610.64
2018-08-10T14:42:56.313Z,101591.22
2018-08-10T14:45:27.286Z,101608.70
2018-08-10T14:47:56.708Z,101597.73
2018-08-10T14:50:26.788Z,101599.67
2018-08-10T14:52:58.482Z,101594.40
2018-08-10T14:55:27.966Z,101600.11
2018-08-10T14:57:57.470Z,101593.66
2018-08-10T15:00:26.845Z,101593.56
2018-08-10T15:02:57.730Z,101593.64
2018-08-10T15:05:28.367Z,101600.98
2018-08-10T15:08:01.841Z,101615.98
2018-08-10T15:10:34.695Z,101608.30
2018-08-10T15:13:05.570Z,101607.63
2018-08-10T15:15:35.659Z,101611.39
2018-08-10T15:18:06.308Z,101607.79
2018-08-10T15:20:37.687Z,101604.52
2018-08-10T15:23:08.392Z,101597.98
2018-08-10T15:25:40.130Z,101597.53
2018-08-10T15:28:09.339Z,101598.42
2018-08-10T15:30:38.581Z,101599.20
2018-08-10T15:33:10.529Z,101594.05
2018-08-10T15:35:40.817Z,101594.73
2018-08-10T15:38:10.119Z,101589.67
2018-08-10T15:40:40.396Z,101599.34
2018-08-10T15:43:10.947Z,101595.83
2018-08-10T15:45:42.391Z,101590.95
2018-08-10T15:48:12.720Z,101595.91
2018-08-10T15:50:43.167Z,101592.69
2018-08-10T15:53:12.733Z,101590.53
2018-08-10T15:55:42.557Z,101585.51
2018-08-10T15:58:12.929Z,101591.36
2018-08-10T16:00:47.061Z,101596.25
2018-08-10T16:03:16.387Z,101595.67
2018-08-10T16:05:46.205Z,101593.30
2018-08-10T16:08:16.297Z,101585.53
2018-08-10T16:10:46.839Z,101592.17
2018-08-10T16:13:16.101Z,101595.03
2018-08-10T16:15:49.942Z,101596.18
2018-08-10T16:18:19.790Z,101591.00
2018-08-10T16:20:48.937Z,101593.02
2018-08-10T16:23:19.298Z,101589.59
2018-08-10T16:25:48.581Z,101594.25
2018-08-10T16:28:17.776Z,101604.98
2018-08-10T16:30:46.938Z,101607.87
2018-08-10T16:33:18.179Z,101595.14
2018-08-10T16:35:52.552Z,101608.17
2018-08-10T16:38:22.292Z,101606.00
2018-08-10T16:40:51.684Z,101605.94
2018-08-10T16:43:22.078Z,101592.36
2018-08-10T16:45:54.722Z,101601.70
2018-08-10T16:48:24.108Z,101591.80
2018-08-10T16:50:53.571Z,101590.52
2018-08-10T16:53:25.722Z,101588.10
2018-08-10T16:55:57.752Z,101585.91
2018-08-10T16:58:29.265Z,101598.59
2018-08-10T17:00:59.657Z,101588.01
2018-08-10T17:03:34.223Z,101596.94
2018-08-10T17:06:03.605Z,101604.12
2018-08-10T17:08:32.892Z,101602.04
2018-08-10T17:11:02.218Z,101610.59
2018-08-10T17:13:32.453Z,101606.94
2018-08-10T17:16:02.425Z,101622.63
2018-08-10T17:18:33.047Z,101619.95
2018-08-10T17:21:04.567Z,101620.93
2018-08-10T17:23:33.957Z,101613.02
2018-08-10T17:26:04.674Z,101618.70
2018-08-10T17:28:33.882Z,101618.77
2018-08-10T17:31:04.235Z,101618.77
2018-08-10T17:33:34.538Z,101610.94
2018-08-10T17:36:07.473Z,101609.78
2018-08-10T17:38:38.219Z,101608.47
2018-08-10T17:41:08.174Z,101617.45
2018-08-10T17:43:40.891Z,101617.64
2018-08-10T17:46:11.397Z,101618.84
2018-08-10T17:48:41.691Z,101613.34
2018-08-10T17:51:11.960Z,101619.19
2018-08-10T17:53:41.604Z,101624.31
2018-08-10T17:56:11.665Z,101631.64
2018-08-10T17:58:41.625Z,101636.63
2018-08-10T18:01:12.793Z,101634.47
2018-08-10T18:03:42.647Z,101639.45
2018-08-10T18:06:11.983Z,101633.48
2018-08-10T18:08:42.298Z,101631.31
2018-08-10T18:11:12.564Z,101646.77
2018-08-10T18:13:43.673Z,101635.12
2018-08-10T18:16:13.002Z,101641.58
2018-08-10T18:18:42.319Z,101609.87
2018-08-10T18:21:16.758Z,101642.91
2018-08-10T18:23:48.042Z,101593.42
2018-08-10T18:26:17.840Z,101645.75
2018-08-10T18:28:48.396Z,101653.04
2018-08-10T18:31:17.742Z,101660.17
2018-08-10T18:33:47.026Z,101648.40
2018-08-10T18:36:16.429Z,101649.05
2018-08-10T18:38:48.806Z,101643.06
2018-08-10T18:41:21.075Z,101646.36
2018-08-10T18:43:51.140Z,101651.48
2018-08-10T18:46:21.818Z,101665.78
2018-08-10T18:48:52.846Z,101668.56
2018-08-10T18:51:26.660Z,101671.03
2018-08-10T18:53:57.432Z,101670.59
2018-08-10T18:56:30.298Z,101667.95
2018-08-10T18:59:01.635Z,101669.94
2018-08-10T19:01:33.874Z,101662.91
2018-08-10T19:04:04.399Z,101659.10
2018-08-10T19:06:33.869Z,101658.47
2018-08-10T19:09:06.256Z,101660.37
2018-08-10T19:11:37.971Z,101658.81
2018-08-10T19:14:08.375Z,101656.30
2018-08-10T19:16:38.639Z,101648.73
2018-08-10T19:19:09.548Z,101651.16
2018-08-10T19:21:40.083Z,101650.50
2018-08-10T19:24:11.411Z,101636.56
2018-08-10T19:26:44.652Z,101652.67
2018-08-10T19:29:14.921Z,101648.88
2018-08-10T19:31:46.723Z,101657.16
2018-08-10T19:34:23.013Z,101655.83
2018-08-10T19:36:53.004Z,101655.31
2018-08-10T19:39:24.950Z,101664.34
2018-08-10T19:41:56.754Z,101666.22
2018-08-10T19:44:26.065Z,101662.56
2018-08-10T19:46:59.849Z,101663.06
2018-08-10T19:49:29.930Z,101670.09
2018-08-10T19:52:01.394Z,101669.78
2018-08-10T19:54:30.714Z,101676.61
2018-08-10T19:57:01.098Z,101676.34
2018-08-10T19:59:34.148Z,101686.40
2018-08-10T20:02:03.489Z,101690.53
2018-08-10T20:04:34.720Z,101686.40
2018-08-10T20:07:07.807Z,101686.92
2018-08-10T20:09:38.010Z,101692.42
2018-08-10T20:12:07.591Z,101704.92
2018-08-10T20:14:38.092Z,101596.52
2018-08-10T20:17:08.931Z,101687.24
2018-08-10T20:19:38.982Z,101685.49
2018-08-10T20:22:14.229Z,101688.80
2018-08-10T20:24:45.711Z,101682.05
2018-08-10T20:27:21.572Z,101659.70
2018-08-10T20:29:53.056Z,101688.61
2018-08-10T20:32:24.440Z,101679.88
2018-08-10T20:34:56.473Z,101683.37
2018-08-10T20:37:25.930Z,101682.05
2018-08-10T20:42:31.626Z,101666.16
2018-08-10T20:45:00.977Z,101684.30
2018-08-10T20:47:32.229Z,101668.72
2018-08-10T20:50:03.982Z,101534.34
2018-08-10T20:52:37.338Z,101669.73
2018-08-10T20:55:08.510Z,101668.61
2018-08-10T20:57:39.626Z,101664.81
2018-08-10T21:00:14.861Z,101673.72
2018-08-10T21:02:46.853Z,101669.94
2018-08-10T21:05:16.836Z,101669.94
2018-08-10T21:07:47.366Z,101670.89
2018-08-10T21:10:18.776Z,101667.84
2018-08-10T21:12:50.976Z,101671.16
2018-08-10T21:15:21.574Z,101570.13
2018-08-10T21:17:53.103Z,101666.81
2018-08-10T21:20:25.573Z,101661.12
2018-08-10T21:22:56.081Z,101663.77
2018-08-10T21:25:28.173Z,101671.23
2018-08-10T21:27:58.590Z,101671.53
2018-08-10T21:30:29.915Z,101680.92
2018-08-10T21:33:00.615Z,101675.09
2018-08-10T21:35:30.014Z,101679.34
2018-08-10T21:38:00.152Z,101674.62
2018-08-10T21:40:29.752Z,101670.87
2018-08-10T21:42:59.799Z,101670.70
2018-08-10T21:45:29.924Z,101664.88
2018-08-10T21:47:59.987Z,101660.68
2018-08-10T21:50:31.094Z,101663.91
2018-08-10T21:53:00.286Z,101659.46
2018-08-10T21:55:33.036Z,101649.86
2018-08-10T21:58:04.185Z,101656.48
2018-08-10T22:00:49.078Z,101531.80
2018-08-10T22:03:18.630Z,101659.03
2018-08-10T22:05:50.068Z,101653.70
2018-08-10T22:08:21.520Z,101651.59
2018-08-10T22:10:51.279Z,101645.84
2018-08-10T22:13:26.471Z,101647.31
2018-08-10T22:16:00.941Z,101645.89
2018-08-10T22:18:35.349Z,101631.86
2018-08-10T22:21:11.388Z,101627.59
2018-08-10T22:23:40.682Z,101629.30
2018-08-10T22:26:11.846Z,101624.86
2018-08-10T22:28:41.937Z,101626.37
2018-08-10T22:31:12.267Z,101625.86
2018-08-10T22:33:42.546Z,101628.22
2018-08-10T22:36:13.524Z,101628.42
2018-08-10T22:38:44.058Z,101627.94
2018-08-10T22:41:16.026Z,101625.30
2018-08-10T22:43:47.229Z,101625.70
2018-08-10T22:46:16.484Z,101617.34
2018-08-10T22:48:46.615Z,101611.11
2018-08-10T22:51:16.969Z,101616.37
2018-08-10T22:53:47.509Z,101612.57
2018-08-10T22:56:18.017Z,101605.69
2018-08-10T22:58:48.896Z,101610.84
2018-08-10T23:01:20.202Z,101607.67
2018-08-10T23:03:49.484Z,101603.53
2018-08-10T23:06:25.202Z,101607.97
2018-08-10T23:08:55.253Z,101602.57
2018-08-10T23:11:25.635Z,101458.95
2018-08-10T23:13:55.679Z,101592.63
2018-08-10T23:16:24.939Z,101587.61
2018-08-10T23:18:54.315Z,101593.80
2018-08-10T23:21:24.055Z,101595.13
2018-08-10T23:24:00.112Z,101594.25
2018-08-10T23:26:30.731Z,101590.77
2018-08-10T23:31:36.973Z,101581.95
2018-08-10T23:34:06.516Z,101571.67
2018-08-10T23:36:38.793Z,101579.88
2018-08-10T23:39:10.527Z,101573.42
2018-08-10T23:41:39.909Z,101573.77
2018-08-10T23:44:10.859Z,101578.57
2018-08-10T23:46:41.187Z,101573.48
2018-08-10T23:49:12.130Z,101569.33
2018-08-10T23:51:48.090Z,101573.70
2018-08-10T23:54:19.114Z,101572.84
2018-08-10T23:56:50.028Z,101572.17
2018-08-10T23:59:21.093Z,101566.69
